Time;durP1;ratioP1;P1;durP2;ratioP2;P2;SDS_P1;SDS_P2;PMS_P1;PMS_P2;Temp;Humidity;BMP_temperature;BMP_pressure;BME280_temperature;BME280_humidity;BME280_pressure;Samples;Min_cycle;Max_cycle;Signal;HPM_P1;HPM_P2
2022/05/07 03:55:13;;;;;;;17.13;10.40;;;;;;;;;;6211025;23;20168;-89
2022/05/07 03:58:19;;;;;;;15.10;10.77;;;;;;;;;;6210254;23;20202;-88
2022/05/07 04:01:26;;;;;;;13.60;9.43;;;;;;;;;;6209851;23;20214;-89
2022/05/07 04:04:32;;;;;;;16.00;10.25;;;;;;;;;;6227569;23;20167;-90
2022/05/07 04:07:44;;;;;;;17.10;11.13;;;;;;;;;;6209083;23;20191;-89
2022/05/07 04:10:52;;;;;;;16.00;10.75;;;;;;;;;;6209524;23;20175;-89
2022/05/07 04:14:01;;;;;;;16.58;10.73;;;;;;;;;;6209014;23;20167;-90
2022/05/07 04:17:07;;;;;;;17.42;10.88;;;;;;;;;;6225842;23;20606;-89
2022/05/07 04:20:15;;;;;;;16.83;10.82;;;;;;;;;;6209212;23;20159;-90
2022/05/07 04:23:23;;;;;;;18.65;11.85;;;;;;;;;;6209837;23;20496;-89
2022/05/07 04:26:30;;;;;;;16.83;10.93;;;;;;;;;;6209856;23;20170;-90
2022/05/07 04:29:36;;;;;;;17.95;11.07;;;;;;;;;;6209977;23;20226;-89
2022/05/07 04:32:51;;;;;;;18.92;11.27;;;;;;;;;;6208301;23;20176;-89
2022/05/07 04:35:57;;;;;;;19.75;11.75;;;;;;;;;;6226233;23;20171;-90
2022/05/07 04:39:06;;;;;;;18.45;10.68;;;;;;;;;;6208068;23;20171;-89
2022/05/07 04:42:18;;;;;;;16.45;11.02;;;;;;;;;;6208402;23;20171;-89
2022/05/07 04:45:34;;;;;;;16.58;10.38;;;;;;;;;;6208727;23;20156;-89
2022/05/07 04:48:46;;;;;;;14.52;10.40;;;;;;;;;;6209533;23;20527;-89
2022/05/07 04:51:53;;;;;;;18.63;9.93;;;;;;;;;;6208814;23;20194;-88
2022/05/07 04:55:04;;;;;;;12.85;9.25;;;;;;;;;;6225412;23;20163;-90
2022/05/07 04:58:12;;;;;;;13.35;9.52;;;;;;;;;;6227517;23;20207;-90
2022/05/07 05:01:19;;;;;;;16.33;9.90;;;;;;;;;;6211525;23;20167;-91
2022/05/07 05:04:31;;;;;;;17.25;9.63;;;;;;;;;;6229312;23;20176;-90
2022/05/07 05:07:36;;;;;;;17.63;10.32;;;;;;;;;;6227926;23;20199;-89
2022/05/07 05:10:43;;;;;;;16.83;9.98;;;;;;;;;;6211927;23;20167;-90
2022/05/07 05:13:49;;;;;;;16.33;9.30;;;;;;;;;;6227830;23;20218;-89
2022/05/07 05:16:57;;;;;;;15.25;9.30;;;;;;;;;;6209460;23;20167;-91
2022/05/07 05:20:04;;;;;;;14.63;9.70;;;;;;;;;;6226249;23;20172;-90
2022/05/07 05:23:09;;;;;;;12.07;8.52;;;;;;;;;;6227251;23;20257;-90
2022/05/07 05:26:21;;;;;;;12.45;8.75;;;;;;;;;;6228236;23;20756;-90
2022/05/07 05:29:34;;;;;;;19.02;8.45;;;;;;;;;;6227327;23;20167;-90
2022/05/07 05:32:43;;;;;;;12.57;8.70;;;;;;;;;;6228793;23;20493;-89
2022/05/07 05:35:53;;;;;;;12.60;8.32;;;;;;;;;;6228217;23;20174;-90
2022/05/07 05:39:05;;;;;;;16.45;9.32;;;;;;;;;;6211711;23;20167;-90
2022/05/07 05:42:12;;;;;;;12.93;8.90;;;;;;;;;;6226144;23;20194;-90
2022/05/07 05:45:20;;;;;;;14.35;9.48;;;;;;;;;;6227542;23;20175;-90
2022/05/07 05:48:29;;;;;;;12.30;8.82;;;;;;;;;;6227696;23;20194;-89
2022/05/07 05:51:37;;;;;;;12.38;8.82;;;;;;;;;;6227994;23;20626;-89
2022/05/07 05:54:43;;;;;;;12.38;8.30;;;;;;;;;;6227867;23;20250;-89
2022/05/07 05:57:50;;;;;;;13.32;8.63;;;;;;;;;;6227135;23;20279;-89
2022/05/07 06:00:58;;;;;;;10.10;7.22;;;;;;;;;;6228166;23;20160;-90
2022/05/07 06:04:04;;;;;;;12.10;8.38;;;;;;;;;;6228312;23;20224;-90
2022/05/07 06:07:09;;;;;;;13.47;8.93;;;;;;;;;;6208519;23;20250;-89
2022/05/07 06:10:18;;;;;;;12.60;8.05;;;;;;;;;;6229049;23;20486;-91
2022/05/07 06:13:26;;;;;;;12.30;7.85;;;;;;;;;;6225831;23;20167;-90
2022/05/07 06:16:32;;;;;;;14.10;8.23;;;;;;;;;;6227409;23;20172;-89
2022/05/07 06:19:42;;;;;;;13.50;9.23;;;;;;;;;;6227587;23;20171;-90
2022/05/07 06:22:49;;;;;;;11.38;8.05;;;;;;;;;;6225151;23;20172;-89
2022/05/07 06:29:18;;;;;;;11.60;7.38;;;;;;;;;;6226880;23;20242;-89
2022/05/07 06:32:25;;;;;;;10.55;7.72;;;;;;;;;;6225649;23;20497;-90
2022/05/07 06:35:32;;;;;;;13.63;8.02;;;;;;;;;;6227201;23;20246;-91
2022/05/07 06:38:45;;;;;;;10.10;6.63;;;;;;;;;;6228499;23;20621;-91
2022/05/07 06:41:53;;;;;;;12.00;7.00;;;;;;;;;;6209751;23;20630;-91
2022/05/07 06:45:00;;;;;;;10.38;6.30;;;;;;;;;;6210850;23;20176;-88
2022/05/07 06:48:08;;;;;;;12.20;7.03;;;;;;;;;;6210278;23;20190;-90
2022/05/07 06:51:13;;;;;;;10.05;6.90;;;;;;;;;;6208256;23;20277;-90
2022/05/07 06:54:18;;;;;;;9.13;6.47;;;;;;;;;;6227973;23;20222;-89
2022/05/07 06:57:25;;;;;;;9.38;6.63;;;;;;;;;;6228859;23;20167;-90
2022/05/07 07:00:31;;;;;;;8.68;6.82;;;;;;;;;;6210957;23;20175;-89
2022/05/07 07:03:39;;;;;;;10.00;6.57;;;;;;;;;;6226635;23;20271;-90
2022/05/07 07:06:44;;;;;;;11.18;6.63;;;;;;;;;;6226338;23;20176;-89
2022/05/07 07:09:49;;;;;;;10.20;6.95;;;;;;;;;;6227153;23;20170;-89
2022/05/07 07:12:54;;;;;;;11.95;7.38;;;;;;;;;;6211411;23;20151;-90
2022/05/07 07:16:01;;;;;;;11.45;7.00;;;;;;;;;;6226966;23;20174;-89
2022/05/07 07:19:06;;;;;;;11.07;7.18;;;;;;;;;;6231362;23;20171;-89
2022/05/07 07:22:11;;;;;;;9.48;6.97;;;;;;;;;;6230883;23;20171;-90
2022/05/07 07:25:17;;;;;;;10.63;6.90;;;;;;;;;;6227758;23;20171;-88
2022/05/07 07:28:22;;;;;;;11.98;7.07;;;;;;;;;;6228224;23;20207;-89
2022/05/07 07:31:29;;;;;;;9.02;6.93;;;;;;;;;;6227573;23;20162;-92
2022/05/07 07:34:34;;;;;;;9.23;6.70;;;;;;;;;;6211569;23;20155;-90
2022/05/07 07:37:39;;;;;;;8.63;5.70;;;;;;;;;;6225152;23;20174;-89
2022/05/07 07:40:49;;;;;;;10.05;6.72;;;;;;;;;;6226300;23;20259;-90
2022/05/07 07:43:54;;;;;;;11.48;7.22;;;;;;;;;;6227923;23;20246;-90
2022/05/07 07:50:24;;;;;;;10.52;6.50;;;;;;;;;;6225511;23;20151;-89
2022/05/07 07:53:29;;;;;;;12.70;6.90;;;;;;;;;;6210164;23;20150;-91
2022/05/07 07:56:34;;;;;;;9.23;6.30;;;;;;;;;;6228102;23;20190;-90
2022/05/07 07:59:40;;;;;;;9.27;5.82;;;;;;;;;;6225701;23;20351;-90
2022/05/07 08:02:55;;;;;;;8.60;6.30;;;;;;;;;;6228459;23;20187;-91
2022/05/07 08:06:01;;;;;;;9.38;6.28;;;;;;;;;;6228053;23;20218;-90
2022/05/07 08:12:29;;;;;;;7.93;5.95;;;;;;;;;;6227737;23;20763;-90
2022/05/07 08:15:34;;;;;;;11.10;6.68;;;;;;;;;;6226282;23;20250;-89
2022/05/07 08:22:31;;;;;;;13.07;8.65;;;;;;;;;;6229050;23;20159;-91
2022/05/07 08:25:35;;;;;;;12.40;6.65;;;;;;;;;;6226530;23;20163;-91
2022/05/07 08:28:41;;;;;;;10.48;7.22;;;;;;;;;;6208085;23;20255;-90
2022/05/07 08:31:47;;;;;;;9.38;6.20;;;;;;;;;;6228442;23;20170;-89
2022/05/07 08:34:52;;;;;;;11.88;6.95;;;;;;;;;;6212869;23;20175;-90
2022/05/07 08:38:19;;;;;;;13.15;7.50;;;;;;;;;;6228902;23;20167;-92
2022/05/07 08:41:27;;;;;;;12.70;7.18;;;;;;;;;;6212287;23;20236;-89
2022/05/07 08:44:33;;;;;;;10.10;6.78;;;;;;;;;;6229704;23;20175;-90
2022/05/07 08:47:39;;;;;;;9.75;6.80;;;;;;;;;;6230370;23;20220;-89
2022/05/07 08:50:46;;;;;;;10.40;6.60;;;;;;;;;;6216814;23;20222;-92
2022/05/07 08:53:55;;;;;;;9.32;7.05;;;;;;;;;;6217744;23;20150;-91
2022/05/07 08:57:05;;;;;;;10.63;6.95;;;;;;;;;;6214847;23;20175;-89
2022/05/07 09:00:11;;;;;;;9.73;7.10;;;;;;;;;;6213128;23;20155;-89
2022/05/07 09:03:17;;;;;;;13.07;8.13;;;;;;;;;;6230901;23;20174;-89
2022/05/07 09:06:24;;;;;;;11.88;8.07;;;;;;;;;;6230964;23;20295;-88
2022/05/07 09:09:31;;;;;;;9.85;7.18;;;;;;;;;;6229661;23;20260;-89
2022/05/07 09:12:39;;;;;;;18.73;10.70;;;;;;;;;;6229600;23;20163;-89
2022/05/07 09:15:52;;;;;;;11.45;7.18;;;;;;;;;;6210113;23;20667;-90
2022/05/07 09:19:02;;;;;;;10.85;7.63;;;;;;;;;;6231733;23;20166;-90
2022/05/07 09:22:08;;;;;;;13.63;6.78;;;;;;;;;;6209365;23;20171;-91
2022/05/07 09:25:19;;;;;;;10.25;6.78;;;;;;;;;;6229661;23;20558;-88
2022/05/07 09:28:28;;;;;;;11.68;7.00;;;;;;;;;;6227758;23;20195;-86
2022/05/07 09:31:34;;;;;;;13.15;8.45;;;;;;;;;;6227470;23;20167;-90
2022/05/07 09:38:15;;;;;;;9.88;6.97;;;;;;;;;;6228424;23;20217;-89
2022/05/07 09:41:20;;;;;;;14.18;7.60;;;;;;;;;;6226377;23;20615;-89
2022/05/07 09:44:29;;;;;;;10.88;7.13;;;;;;;;;;6209064;23;20167;-89
2022/05/07 09:47:34;;;;;;;11.85;7.15;;;;;;;;;;6226490;23;20158;-89
2022/05/07 09:50:45;;;;;;;11.18;6.30;;;;;;;;;;6227351;23;20507;-89
2022/05/07 09:57:32;;;;;;;9.82;6.20;;;;;;;;;;6228570;23;20184;-90
2022/05/07 10:00:39;;;;;;;12.27;6.53;;;;;;;;;;6209842;23;20167;-89
2022/05/07 10:03:52;;;;;;;11.10;6.28;;;;;;;;;;6211352;23;20187;-89
2022/05/07 10:07:03;;;;;;;11.73;7.78;;;;;;;;;;6233593;23;20220;-89
2022/05/07 10:10:30;;;;;;;16.45;10.13;;;;;;;;;;6230175;23;20273;-90
2022/05/07 10:13:36;;;;;;;14.63;7.53;;;;;;;;;;6209870;23;20191;-90
2022/05/07 10:17:03;;;;;;;10.40;7.43;;;;;;;;;;6233791;23;20163;-89
2022/05/07 10:20:10;;;;;;;11.98;7.15;;;;;;;;;;6212265;23;20167;-89
2022/05/07 10:23:16;;;;;;;9.00;6.82;;;;;;;;;;6227971;23;20243;-91
2022/05/07 10:26:22;;;;;;;9.90;6.60;;;;;;;;;;6226101;23;20162;-90
2022/05/07 10:29:29;;;;;;;9.52;6.50;;;;;;;;;;6230419;23;20206;-89
2022/05/07 10:32:48;;;;;;;11.57;6.20;;;;;;;;;;6228831;23;20170;-90
2022/05/07 10:35:54;;;;;;;10.60;6.65;;;;;;;;;;6228191;23;20175;-89
2022/05/07 10:39:07;;;;;;;18.58;12.30;;;;;;;;;;6212264;23;20661;-90
2022/05/07 10:42:16;;;;;;;7.97;6.30;;;;;;;;;;6211820;23;20210;-90
2022/05/07 10:45:21;;;;;;;11.20;6.15;;;;;;;;;;6210288;23;20167;-90
2022/05/07 10:48:28;;;;;;;8.60;5.63;;;;;;;;;;6226455;23;20167;-90
2022/05/07 10:51:34;;;;;;;7.93;6.20;;;;;;;;;;6224589;23;20191;-90
2022/05/07 10:54:39;;;;;;;8.68;6.13;;;;;;;;;;6224345;23;20238;-90
2022/05/07 10:57:46;;;;;;;9.13;6.45;;;;;;;;;;6210030;23;20493;-90
2022/05/07 11:00:52;;;;;;;12.25;8.32;;;;;;;;;;6212658;23;20678;-91
2022/05/07 11:04:05;;;;;;;9.82;6.53;;;;;;;;;;6207428;23;20627;-90
2022/05/07 11:07:10;;;;;;;12.30;7.63;;;;;;;;;;6225014;23;20224;-90
2022/05/07 11:10:17;;;;;;;19.83;8.07;;;;;;;;;;6207869;23;20211;-91
2022/05/07 11:13:22;;;;;;;10.63;6.85;;;;;;;;;;6226544;23;20222;-90
2022/05/07 11:16:27;;;;;;;12.18;7.40;;;;;;;;;;6224583;23;20171;-91
2022/05/07 11:19:34;;;;;;;14.70;8.40;;;;;;;;;;6225748;23;20178;-90
2022/05/07 11:22:40;;;;;;;22.90;13.95;;;;;;;;;;6225437;23;20211;-89
2022/05/07 11:25:46;;;;;;;10.05;7.13;;;;;;;;;;6207441;23;20175;-89
2022/05/07 11:28:51;;;;;;;15.63;10.80;;;;;;;;;;6207765;23;20521;-90
2022/05/07 11:31:57;;;;;;;9.25;6.63;;;;;;;;;;6209044;23;20175;-90
2022/05/07 11:35:11;;;;;;;10.88;6.88;;;;;;;;;;6208807;23;20219;-90
2022/05/07 11:38:17;;;;;;;7.85;6.05;;;;;;;;;;6225232;23;20219;-89
2022/05/07 11:41:24;;;;;;;10.32;7.10;;;;;;;;;;6225670;23;20239;-92
2022/05/07 11:47:53;;;;;;;9.95;6.32;;;;;;;;;;6225564;23;20163;-88
2022/05/07 11:51:00;;;;;;;11.50;7.20;;;;;;;;;;6226903;23;20246;-89
2022/05/07 11:54:10;;;;;;;9.95;6.40;;;;;;;;;;6225207;23;20214;-88
2022/05/07 11:57:15;;;;;;;9.82;6.32;;;;;;;;;;6226895;23;20174;-89
2022/05/07 12:00:21;;;;;;;9.50;5.60;;;;;;;;;;6227229;23;20178;-89
2022/05/07 12:03:27;;;;;;;10.48;6.00;;;;;;;;;;6227275;23;20175;-90
2022/05/07 12:06:37;;;;;;;9.00;6.35;;;;;;;;;;6229090;23;20191;-89
2022/05/07 12:09:43;;;;;;;7.72;5.95;;;;;;;;;;6211680;23;20190;-90
2022/05/07 12:12:48;;;;;;;10.15;6.35;;;;;;;;;;6230207;23;20171;-89
2022/05/07 12:19:17;;;;;;;10.23;7.00;;;;;;;;;;6228004;23;20239;-91
2022/05/07 12:32:35;;;;;;;7.95;5.45;;;;;;;;;;6226320;23;20167;-90
2022/05/07 12:35:40;;;;;;;7.80;5.30;;;;;;;;;;6209952;23;20178;-89
2022/05/07 12:38:46;;;;;;;8.32;5.47;;;;;;;;;;6228578;23;20227;-89
2022/05/07 12:41:55;;;;;;;7.68;5.20;;;;;;;;;;6229846;23;20226;-90
2022/05/07 12:45:00;;;;;;;11.23;5.45;;;;;;;;;;6209968;23;20170;-89
2022/05/07 12:48:06;;;;;;;9.00;5.72;;;;;;;;;;6213088;23;20223;-90
2022/05/07 12:51:12;;;;;;;37.28;24.52;;;;;;;;;;6228103;23;20650;-91
2022/05/07 12:54:21;;;;;;;6.32;4.45;;;;;;;;;;6213001;23;20186;-89
2022/05/07 12:57:27;;;;;;;5.75;4.72;;;;;;;;;;6230161;23;20295;-90
2022/05/07 13:00:32;;;;;;;16.15;8.38;;;;;;;;;;6229559;23;20231;-89
2022/05/07 13:03:38;;;;;;;6.50;5.18;;;;;;;;;;6231232;23;20166;-89
2022/05/07 13:06:44;;;;;;;6.40;4.22;;;;;;;;;;6230231;23;20171;-90
2022/05/07 13:09:52;;;;;;;6.38;4.00;;;;;;;;;;6230518;23;20234;-90
2022/05/07 13:12:58;;;;;;;8.93;4.22;;;;;;;;;;6228649;23;20323;-89
2022/05/07 13:16:13;;;;;;;6.25;4.28;;;;;;;;;;6229679;23;20250;-91
2022/05/07 13:19:18;;;;;;;8.57;4.97;;;;;;;;;;6227364;23;20336;-90
2022/05/07 13:22:23;;;;;;;7.05;4.82;;;;;;;;;;6227622;23;20211;-91
2022/05/07 13:25:30;;;;;;;7.07;4.15;;;;;;;;;;6228654;23;20171;-89
2022/05/07 13:28:35;;;;;;;6.93;4.25;;;;;;;;;;6227659;23;20172;-88
2022/05/07 13:31:40;;;;;;;4.00;3.58;;;;;;;;;;6227758;23;20501;-90
2022/05/07 13:34:45;;;;;;;4.68;3.60;;;;;;;;;;6211053;23;20503;-90
2022/05/07 13:37:50;;;;;;;5.47;3.50;;;;;;;;;;6229934;23;20211;-90
2022/05/07 13:40:57;;;;;;;6.43;3.72;;;;;;;;;;6231754;23;20167;-89
2022/05/07 13:44:02;;;;;;;5.75;3.85;;;;;;;;;;6228653;23;20171;-90
2022/05/07 13:47:07;;;;;;;6.32;4.07;;;;;;;;;;6208936;23;20171;-89
2022/05/07 13:50:12;;;;;;;5.30;3.80;;;;;;;;;;6210725;23;20198;-89
2022/05/07 13:53:19;;;;;;;4.72;3.80;;;;;;;;;;6230978;23;20175;-89
2022/05/07 13:56:27;;;;;;;6.32;4.75;;;;;;;;;;6231482;23;20170;-89
2022/05/07 13:59:33;;;;;;;5.78;4.05;;;;;;;;;;6210583;23;20167;-91
2022/05/07 14:02:39;;;;;;;5.97;4.07;;;;;;;;;;6227919;23;20182;-90
2022/05/07 14:05:44;;;;;;;5.00;3.72;;;;;;;;;;6230027;23;20178;-89
2022/05/07 14:08:49;;;;;;;6.78;3.50;;;;;;;;;;6210000;23;20175;-89
2022/05/07 14:11:56;;;;;;;4.80;3.72;;;;;;;;;;6227900;23;20191;-88
2022/05/07 14:15:01;;;;;;;5.03;3.78;;;;;;;;;;6209193;23;20353;-89
2022/05/07 14:18:06;;;;;;;6.28;3.50;;;;;;;;;;6225625;23;20493;-88
2022/05/07 14:21:12;;;;;;;6.95;4.30;;;;;;;;;;6208216;23;20238;-90
2022/05/07 14:24:18;;;;;;;4.60;3.10;;;;;;;;;;6225069;23;20198;-89
2022/05/07 14:27:25;;;;;;;3.90;2.95;;;;;;;;;;6226726;23;20159;-88
2022/05/07 14:30:30;;;;;;;4.28;3.13;;;;;;;;;;6226938;23;20195;-89
2022/05/07 14:33:35;;;;;;;4.78;3.10;;;;;;;;;;6210359;23;20235;-89
2022/05/07 14:36:41;;;;;;;4.95;3.20;;;;;;;;;;6211384;23;20243;-88
2022/05/07 14:39:49;;;;;;;4.95;3.85;;;;;;;;;;6229366;23;20263;-90
2022/05/07 14:46:30;;;;;;;6.00;4.28;;;;;;;;;;6208979;23;20259;-89
2022/05/07 14:49:36;;;;;;;5.50;4.07;;;;;;;;;;6227266;23;20171;-89
2022/05/07 14:52:41;;;;;;;5.40;4.00;;;;;;;;;;6210347;23;20190;-89
2022/05/07 14:55:47;;;;;;;7.88;3.42;;;;;;;;;;6212934;23;20166;-90
2022/05/07 14:58:52;;;;;;;4.60;3.22;;;;;;;;;;6228301;23;20194;-92
2022/05/07 15:02:02;;;;;;;4.00;3.50;;;;;;;;;;6228157;23;20190;-88
2022/05/07 15:05:10;;;;;;;5.45;3.78;;;;;;;;;;6228672;23;20235;-89
2022/05/07 15:11:39;;;;;;;8.43;3.70;;;;;;;;;;6227907;23;20195;-88
2022/05/07 15:14:46;;;;;;;7.20;3.80;;;;;;;;;;6229635;23;20171;-89
2022/05/07 15:17:53;;;;;;;6.57;4.07;;;;;;;;;;6229461;23;20210;-89
2022/05/07 15:20:58;;;;;;;8.90;5.53;;;;;;;;;;6228860;23;20623;-88
2022/05/07 15:24:03;;;;;;;5.07;3.92;;;;;;;;;;6227240;23;20172;-89
2022/05/07 15:27:09;;;;;;;6.25;3.97;;;;;;;;;;6228076;23;20167;-89
2022/05/07 15:30:14;;;;;;;6.28;4.60;;;;;;;;;;6227925;23;20256;-89
2022/05/07 15:36:57;;;;;;;6.25;3.97;;;;;;;;;;6228552;23;20183;-89
2022/05/07 15:40:03;;;;;;;6.57;3.97;;;;;;;;;;6208620;23;20619;-90
2022/05/07 15:43:09;;;;;;;7.68;4.18;;;;;;;;;;6227203;23;20195;-90
2022/05/07 15:46:15;;;;;;;7.60;3.85;;;;;;;;;;6226986;23;20206;-89
2022/05/07 15:49:23;;;;;;;5.38;3.97;;;;;;;;;;6225056;23;20194;-89
2022/05/07 15:52:32;;;;;;;8.20;5.47;;;;;;;;;;6211173;23;20179;-88
2022/05/07 15:55:37;;;;;;;9.65;4.82;;;;;;;;;;6209590;23;20171;-89
2022/05/07 15:58:43;;;;;;;7.35;4.63;;;;;;;;;;6227759;23;20228;-89
2022/05/07 16:01:48;;;;;;;8.63;4.13;;;;;;;;;;6210704;23;20286;-90
2022/05/07 16:04:55;;;;;;;5.57;4.03;;;;;;;;;;6224943;23;20178;-90
2022/05/07 16:08:00;;;;;;;5.32;3.83;;;;;;;;;;6225430;23;20171;-89
2022/05/07 16:11:05;;;;;;;5.13;3.90;;;;;;;;;;6226347;23;20199;-89
2022/05/07 16:14:12;;;;;;;6.47;3.72;;;;;;;;;;6209130;23;20198;-89
2022/05/07 16:17:17;;;;;;;5.00;3.60;;;;;;;;;;6209214;23;20171;-89
2022/05/07 16:20:23;;;;;;;10.13;4.43;;;;;;;;;;6225964;23;20167;-88
2022/05/07 16:26:55;;;;;;;5.78;4.65;;;;;;;;;;6226884;23;20187;-88
2022/05/07 16:30:00;;;;;;;8.00;4.18;;;;;;;;;;6227386;23;20159;-90
2022/05/07 16:33:06;;;;;;;4.53;3.65;;;;;;;;;;6226367;23;20175;-90
2022/05/07 16:36:12;;;;;;;4.70;3.90;;;;;;;;;;6226633;23;20178;-88
2022/05/07 16:39:22;;;;;;;7.03;4.50;;;;;;;;;;6227348;23;20170;-90
2022/05/07 16:42:27;;;;;;;8.10;4.13;;;;;;;;;;6227371;23;20162;-90
2022/05/07 16:45:32;;;;;;;6.88;3.83;;;;;;;;;;6208854;23;20210;-89
2022/05/07 16:48:38;;;;;;;5.82;4.25;;;;;;;;;;6226964;23;20167;-89
2022/05/07 16:51:44;;;;;;;5.60;4.10;;;;;;;;;;6208409;23;20206;-90
2022/05/07 16:54:49;;;;;;;7.30;4.35;;;;;;;;;;6227907;23;20171;-91
2022/05/07 16:57:55;;;;;;;6.35;4.70;;;;;;;;;;6226509;23;20171;-93
2022/05/07 17:01:05;;;;;;;5.88;4.55;;;;;;;;;;6209653;23;20172;-90
2022/05/07 17:04:11;;;;;;;10.65;4.50;;;;;;;;;;6227746;23;20171;-89
2022/05/07 17:07:18;;;;;;;5.45;4.20;;;;;;;;;;6226705;23;20217;-89
2022/05/07 17:10:24;;;;;;;7.00;4.68;;;;;;;;;;6227838;23;20265;-88
2022/05/07 17:13:29;;;;;;;8.27;4.57;;;;;;;;;;6227651;23;20175;-89
2022/05/07 17:16:34;;;;;;;9.15;5.03;;;;;;;;;;6226169;23;20666;-89
2022/05/07 17:19:39;;;;;;;7.68;4.53;;;;;;;;;;6211898;23;20167;-89
2022/05/07 17:22:46;;;;;;;8.68;4.85;;;;;;;;;;6228080;23;20258;-90
2022/05/07 17:25:52;;;;;;;7.30;4.30;;;;;;;;;;6232072;23;20158;-91
2022/05/07 17:28:57;;;;;;;10.70;5.20;;;;;;;;;;6231180;23;20622;-89
2022/05/07 17:32:02;;;;;;;9.15;5.30;;;;;;;;;;6229366;23;20195;-88
2022/05/07 17:35:08;;;;;;;13.73;5.18;;;;;;;;;;6211370;23;20171;-90
2022/05/07 17:38:24;;;;;;;11.77;5.63;;;;;;;;;;6230517;23;20241;-90
2022/05/07 17:41:41;;;;;;;9.35;5.20;;;;;;;;;;6229203;23;20203;-88
2022/05/07 17:44:46;;;;;;;7.63;5.32;;;;;;;;;;6214570;23;20254;-89
2022/05/07 17:51:11;;;;;;;7.80;5.25;;;;;;;;;;6211519;23;20210;-88
2022/05/07 17:54:18;;;;;;;13.10;5.30;;;;;;;;;;6229155;23;20328;-90
2022/05/07 17:57:23;;;;;;;7.53;5.20;;;;;;;;;;6227387;23;20171;-89
2022/05/07 18:00:29;;;;;;;10.25;6.25;;;;;;;;;;6227627;23;20206;-88
2022/05/07 18:03:35;;;;;;;11.57;6.47;;;;;;;;;;6227323;23;20170;-91
2022/05/07 18:06:42;;;;;;;15.30;7.50;;;;;;;;;;6226172;23;20166;-89
2022/05/07 18:09:50;;;;;;;16.60;8.25;;;;;;;;;;6210023;23;20666;-90
2022/05/07 18:12:57;;;;;;;12.95;7.32;;;;;;;;;;6227257;23;20166;-89
2022/05/07 18:16:02;;;;;;;13.07;7.80;;;;;;;;;;6228877;23;20275;-89
2022/05/07 18:19:07;;;;;;;11.35;7.05;;;;;;;;;;6208617;23;20626;-89
2022/05/07 18:22:13;;;;;;;10.45;7.22;;;;;;;;;;6226217;23;20614;-88
2022/05/07 18:25:19;;;;;;;12.13;7.07;;;;;;;;;;6226268;23;20226;-89
2022/05/07 18:28:24;;;;;;;11.45;6.78;;;;;;;;;;6229030;23;20166;-88
2022/05/07 18:31:30;;;;;;;10.75;7.55;;;;;;;;;;6226929;23;20206;-89
2022/05/07 18:34:35;;;;;;;16.10;8.93;;;;;;;;;;6227656;23;20357;-91
2022/05/07 18:44:34;;;;;;;12.00;6.47;;;;;;;;;;6228917;23;20214;-89
2022/05/07 18:47:43;;;;;;;12.43;7.03;;;;;;;;;;6231581;23;20175;-88
2022/05/07 18:50:48;;;;;;;12.85;7.10;;;;;;;;;;6227953;23;20217;-89
2022/05/07 18:53:54;;;;;;;9.52;6.63;;;;;;;;;;6227368;23;20168;-90
2022/05/07 19:00:24;;;;;;;10.75;7.07;;;;;;;;;;6226952;23;20631;-89
2022/05/07 19:03:31;;;;;;;11.25;7.18;;;;;;;;;;6226799;23;20630;-88
2022/05/07 19:06:36;;;;;;;14.50;9.40;;;;;;;;;;6209768;23;20167;-89
2022/05/07 19:09:41;;;;;;;10.52;7.88;;;;;;;;;;6228159;23;20162;-90
2022/05/07 19:12:48;;;;;;;15.75;9.00;;;;;;;;;;6227890;23;20641;-90
2022/05/07 19:15:53;;;;;;;17.35;8.35;;;;;;;;;;6227603;23;20681;-87
2022/05/07 19:18:59;;;;;;;10.43;7.70;;;;;;;;;;6227574;23;20195;-89
2022/05/07 19:22:10;;;;;;;14.85;7.20;;;;;;;;;;6229580;23;20162;-91
2022/05/07 19:25:15;;;;;;;15.00;7.32;;;;;;;;;;6211283;23;20247;-90
2022/05/07 19:28:22;;;;;;;12.07;7.72;;;;;;;;;;6210403;23;20171;-89
2022/05/07 19:31:28;;;;;;;12.40;7.68;;;;;;;;;;6209327;23;20195;-90
2022/05/07 19:34:33;;;;;;;15.35;7.95;;;;;;;;;;6211920;23;20163;-90
2022/05/07 19:37:39;;;;;;;11.75;8.00;;;;;;;;;;6228963;23;20242;-88
2022/05/07 19:40:45;;;;;;;13.63;8.52;;;;;;;;;;6227881;23;20170;-89
2022/05/07 19:43:52;;;;;;;12.18;7.85;;;;;;;;;;6228876;23;20607;-90
2022/05/07 19:47:10;;;;;;;16.08;8.27;;;;;;;;;;6233358;23;20182;-93
2022/05/07 19:50:20;;;;;;;16.45;8.93;;;;;;;;;;6227213;23;20167;-89
2022/05/07 19:53:26;;;;;;;14.80;9.23;;;;;;;;;;6227236;23;20175;-88
2022/05/07 19:56:31;;;;;;;17.70;8.43;;;;;;;;;;6208014;23;20170;-91
2022/05/07 19:59:38;;;;;;;16.88;9.82;;;;;;;;;;6208985;23;20166;-89
2022/05/07 20:02:43;;;;;;;15.43;9.18;;;;;;;;;;6226786;23;20175;-88
2022/05/07 20:05:50;;;;;;;16.77;8.82;;;;;;;;;;6224829;23;20155;-89
2022/05/07 20:08:55;;;;;;;14.32;9.48;;;;;;;;;;6207990;23;20615;-88
2022/05/07 20:12:02;;;;;;;17.88;9.27;;;;;;;;;;6225853;23;20520;-88
2022/05/07 20:15:11;;;;;;;16.25;9.32;;;;;;;;;;6225815;23;20171;-88
2022/05/07 20:18:16;;;;;;;14.88;9.70;;;;;;;;;;6226559;23;20278;-88
2022/05/07 20:24:45;;;;;;;18.95;10.32;;;;;;;;;;6208166;23;20187;-90
2022/05/07 20:27:54;;;;;;;15.45;10.45;;;;;;;;;;6225859;23;20172;-90
2022/05/07 20:31:02;;;;;;;20.65;10.90;;;;;;;;;;6208314;23;20170;-90
2022/05/07 20:34:08;;;;;;;20.60;12.15;;;;;;;;;;6207666;23;20179;-89
2022/05/07 20:37:14;;;;;;;17.92;10.68;;;;;;;;;;6208187;23;20175;-89
2022/05/07 20:40:21;;;;;;;20.27;11.57;;;;;;;;;;6208117;23;20159;-88
2022/05/07 20:46:51;;;;;;;27.83;14.02;;;;;;;;;;6208487;23;20214;-89
2022/05/07 20:50:02;;;;;;;26.30;13.40;;;;;;;;;;6212150;23;20155;-90
2022/05/07 20:53:08;;;;;;;21.67;12.50;;;;;;;;;;6209353;23;20194;-90
2022/05/07 20:56:12;;;;;;;16.60;10.15;;;;;;;;;;6231308;23;20238;-87
2022/05/07 20:59:18;;;;;;;29.92;13.65;;;;;;;;;;6216000;23;20166;-89
2022/05/07 21:02:28;;;;;;;37.63;14.65;;;;;;;;;;6230743;23;20168;-88
2022/05/07 21:05:33;;;;;;;20.90;11.63;;;;;;;;;;6215113;23;20186;-89
2022/05/07 21:08:39;;;;;;;20.63;11.27;;;;;;;;;;6232357;23;20171;-88
2022/05/07 21:11:45;;;;;;;17.77;11.30;;;;;;;;;;6213846;23;20207;-88
2022/05/07 21:14:50;;;;;;;23.33;11.60;;;;;;;;;;6230981;23;20156;-88
2022/05/07 21:18:00;;;;;;;18.27;10.65;;;;;;;;;;6212950;23;20618;-89
2022/05/07 21:21:17;;;;;;;21.27;11.02;;;;;;;;;;6213044;23;20170;-89
2022/05/07 21:26:32;;;;;;;25.20;10.98;;;;;;;;;;6211974;23;20211;-88
2022/05/07 21:27:47;;;;;;;18.50;10.30;;;;;;;;;;6210941;23;20218;-89
2022/05/07 21:30:52;;;;;;;16.67;10.82;;;;;;;;;;6212692;23;20167;-90
2022/05/07 21:33:58;;;;;;;16.25;10.07;;;;;;;;;;6212796;23;20162;-88
2022/05/07 21:37:04;;;;;;;15.18;9.73;;;;;;;;;;6209733;23;20231;-88
2022/05/07 21:40:10;;;;;;;15.65;10.13;;;;;;;;;;6229410;23;20151;-89
2022/05/07 21:43:15;;;;;;;16.75;9.88;;;;;;;;;;6212328;23;20625;-87
2022/05/07 21:46:20;;;;;;;18.20;11.18;;;;;;;;;;6228520;23;20175;-88
2022/05/07 21:49:27;;;;;;;18.05;11.80;;;;;;;;;;6209557;23;20175;-89
2022/05/07 21:52:33;;;;;;;18.02;11.50;;;;;;;;;;6209586;23;20236;-89
2022/05/07 21:55:38;;;;;;;18.15;11.20;;;;;;;;;;6209603;23;20167;-89
2022/05/07 21:58:44;;;;;;;19.88;12.43;;;;;;;;;;6212772;23;20167;-90
2022/05/07 22:01:53;;;;;;;18.27;11.13;;;;;;;;;;6211956;23;20606;-88
2022/05/07 22:05:02;;;;;;;20.13;11.23;;;;;;;;;;6228223;23;20175;-89
2022/05/07 22:08:08;;;;;;;17.70;10.90;;;;;;;;;;6211683;23;20495;-89
2022/05/07 22:11:15;;;;;;;19.15;10.88;;;;;;;;;;6229757;23;20170;-90
2022/05/07 22:14:21;;;;;;;21.42;10.55;;;;;;;;;;6210378;23;20207;-89
2022/05/07 22:17:26;;;;;;;20.98;10.27;;;;;;;;;;6210093;23;20178;-89
2022/05/07 22:20:32;;;;;;;22.65;11.20;;;;;;;;;;6209966;23;20167;-89
2022/05/07 22:23:37;;;;;;;17.92;10.75;;;;;;;;;;6209627;23;20146;-88
2022/05/07 22:26:42;;;;;;;17.58;10.73;;;;;;;;;;6208309;23;20214;-89
2022/05/07 22:29:47;;;;;;;16.35;10.60;;;;;;;;;;6207735;23;20167;-89
2022/05/07 22:32:52;;;;;;;17.45;11.45;;;;;;;;;;6227786;23;20174;-88
2022/05/07 22:35:59;;;;;;;16.67;10.88;;;;;;;;;;6211436;23;20167;-88
2022/05/07 22:39:05;;;;;;;21.17;11.27;;;;;;;;;;6227718;23;20238;-87
2022/05/07 22:42:11;;;;;;;18.88;11.13;;;;;;;;;;6210103;23;20163;-89
2022/05/07 22:45:17;;;;;;;18.23;10.88;;;;;;;;;;6209797;23;20167;-89
2022/05/07 22:48:27;;;;;;;17.35;10.70;;;;;;;;;;6211122;23;20171;-89
2022/05/07 22:51:35;;;;;;;17.00;11.60;;;;;;;;;;6229530;23;20191;-89
2022/05/07 22:54:40;;;;;;;18.52;11.82;;;;;;;;;;6213987;23;20171;-87
2022/05/07 22:57:45;;;;;;;20.25;12.57;;;;;;;;;;6212572;23;20167;-89
2022/05/07 23:00:50;;;;;;;18.33;11.10;;;;;;;;;;6209451;23;20171;-88
2022/05/07 23:03:55;;;;;;;23.90;12.30;;;;;;;;;;6228265;23;20215;-89
2022/05/07 23:07:02;;;;;;;22.92;12.98;;;;;;;;;;6226848;23;20170;-88
2022/05/07 23:10:07;;;;;;;19.73;11.43;;;;;;;;;;6225250;23;20186;-89
2022/05/07 23:13:13;;;;;;;18.80;11.38;;;;;;;;;;6209241;23;20194;-88
2022/05/07 23:16:21;;;;;;;17.92;12.38;;;;;;;;;;6208470;23;20179;-87
2022/05/07 23:19:26;;;;;;;24.17;11.73;;;;;;;;;;6208628;23;20220;-86
2022/05/07 23:22:33;;;;;;;20.80;12.27;;;;;;;;;;6227041;23;20166;-88
2022/05/07 23:25:41;;;;;;;19.58;11.82;;;;;;;;;;6209395;23;20194;-89
2022/05/07 23:28:48;;;;;;;18.88;12.10;;;;;;;;;;6228396;23;20167;-88
2022/05/07 23:31:56;;;;;;;20.38;11.85;;;;;;;;;;6209280;23;20175;-87